PPNOB LXGB-GMMN
Flight info
| Callsign | PPNOB |
|---|---|
| Flight time | N/A |
| Altitude | 220 |
| Route | BARPA UM985 TNR UN10 BARIS UB11 TUSOR |
| Aircraft | B737/M-SDE2E3FGRY/S |
Departure
| Time | 2026-05-07 18:31 |
|---|---|
| Airport | Gibraltar Airport (LXGB) |
Arrival
| Time | N/A |
|---|---|
| Airport | Mohammed V International Airport (GMMN) |
| Time | Latitude | Longitude | Altitude | Speed | Heading |
|---|---|---|---|---|---|
| 2026-05-07 18:30 | 36.15127 | -5.34672 | 19 ft | 0 kts | 266° |
| 2026-05-07 18:30 | 36.15125 | -5.34720 | 19 ft | 37 kts | 267° |
| 2026-05-07 18:31 | 36.15093 | -5.35544 | 25 ft | 150 kts | 262° |
| 2026-05-07 18:31 | 36.14976 | -5.37005 | 987 ft | 179 kts | 262° |
| 2026-05-07 18:31 | 36.14506 | -5.38466 | 2409 ft | 194 kts | 230° |
| 2026-05-07 18:31 | 36.13416 | -5.39473 | 3818 ft | 197 kts | 215° |
| 2026-05-07 18:32 | 36.12227 | -5.40457 | 5025 ft | 215 kts | 214° |
| 2026-05-07 18:32 | 36.10934 | -5.41545 | 6230 ft | 235 kts | 214° |
| 2026-05-07 18:32 | 36.09538 | -5.42745 | 7376 ft | 252 kts | 215° |
| 2026-05-07 18:32 | 36.08069 | -5.44034 | 8624 ft | 264 kts | 216° |
| 2026-05-07 18:33 | 36.06531 | -5.45405 | 9664 ft | 287 kts | 216° |
| 2026-05-07 18:33 | 36.04870 | -5.46903 | 10434 ft | 312 kts | 217° |
| 2026-05-07 18:33 | 36.03055 | -5.48555 | 11191 ft | 334 kts | 217° |
| 2026-05-07 18:33 | 36.01132 | -5.50316 | 11953 ft | 353 kts | 217° |
| 2026-05-07 18:34 | 35.99137 | -5.52148 | 12782 ft | 359 kts | 217° |
| 2026-05-07 18:34 | 35.97124 | -5.53998 | 13708 ft | 361 kts | 217° |
| 2026-05-07 18:34 | 35.95104 | -5.55856 | 14525 ft | 364 kts | 218° |
| 2026-05-07 18:34 | 35.93751 | -5.57101 | 15082 ft | 366 kts | 218° |
| 2026-05-07 18:35 | 35.91012 | -5.59619 | 16234 ft | 368 kts | 218° |
| 2026-05-07 18:35 | 35.89651 | -5.60870 | 16823 ft | 369 kts | 218° |
| 2026-05-07 18:35 | 35.87591 | -5.62760 | 17726 ft | 369 kts | 219° |
| 2026-05-07 18:35 | 35.84934 | -5.65375 | 18854 ft | 367 kts | 226° |
| 2026-05-07 18:36 | 35.83246 | -5.67727 | 19681 ft | 366 kts | 233° |
| 2026-05-07 18:36 | 35.82259 | -5.69456 | 20250 ft | 364 kts | 239° |
| 2026-05-07 18:36 | 35.81088 | -5.72208 | 21064 ft | 365 kts | 244° |
| 2026-05-07 18:36 | 35.79977 | -5.75099 | 21293 ft | 380 kts | 245° |
| 2026-05-07 18:37 | 35.78851 | -5.78057 | 21561 ft | 392 kts | 244° |
| 2026-05-07 18:37 | 35.77675 | -5.81099 | 21820 ft | 396 kts | 244° |
| 2026-05-07 18:37 | 35.76465 | -5.84189 | 21934 ft | 404 kts | 244° |
| 2026-05-07 18:37 | 35.74990 | -5.87137 | 21932 ft | 405 kts | 230° |
| 2026-05-07 18:38 | 35.72892 | -5.89433 | 21938 ft | 405 kts | 216° |
| 2026-05-07 18:38 | 35.70390 | -5.91035 | 21948 ft | 410 kts | 205° |
| 2026-05-07 18:38 | 35.67603 | -5.91913 | 21934 ft | 418 kts | 190° |
| 2026-05-07 18:38 | 35.64739 | -5.92021 | 21935 ft | 402 kts | 185° |
| 2026-05-07 18:39 | 35.61996 | -5.91962 | 21921 ft | 386 kts | 184° |
| 2026-05-07 18:39 | 35.59327 | -5.91883 | 21931 ft | 382 kts | 184° |
| 2026-05-07 18:39 | 35.56657 | -5.91821 | 21935 ft | 384 kts | 184° |
| 2026-05-07 18:39 | 35.53985 | -5.91779 | 21939 ft | 384 kts | 185° |
| 2026-05-07 18:40 | 35.51320 | -5.91751 | 21934 ft | 384 kts | 185° |
| 2026-05-07 18:40 | 35.48664 | -5.91730 | 21928 ft | 385 kts | 185° |
| 2026-05-07 18:40 | 35.45970 | -5.91713 | 21944 ft | 396 kts | 185° |
| 2026-05-07 18:40 | 35.43146 | -5.91698 | 21942 ft | 412 kts | 185° |
| 2026-05-07 18:41 | 35.40238 | -5.91679 | 21939 ft | 425 kts | 184° |
| 2026-05-07 18:41 | 35.37248 | -5.91690 | 21936 ft | 433 kts | 185° |
| 2026-05-07 18:41 | 35.34221 | -5.91768 | 21926 ft | 433 kts | 186° |
| 2026-05-07 18:41 | 35.31216 | -5.91868 | 21918 ft | 431 kts | 186° |
| 2026-05-07 18:42 | 35.28216 | -5.91971 | 21922 ft | 431 kts | 186° |
| 2026-05-07 18:42 | 35.25214 | -5.92070 | 21913 ft | 431 kts | 186° |
| 2026-05-07 18:42 | 35.22212 | -5.92163 | 21924 ft | 431 kts | 186° |
| 2026-05-07 18:42 | 35.19261 | -5.92249 | 21922 ft | 431 kts | 186° |
| 2026-05-07 18:43 | 35.16216 | -5.92336 | 21923 ft | 431 kts | 186° |
| 2026-05-07 18:43 | 35.13248 | -5.92418 | 21916 ft | 432 kts | 186° |
| 2026-05-07 18:43 | 35.10239 | -5.92533 | 21922 ft | 433 kts | 189° |
| 2026-05-07 18:43 | 35.07286 | -5.93154 | 21917 ft | 429 kts | 199° |
| 2026-05-07 18:44 | 35.04477 | -5.94344 | 21931 ft | 426 kts | 206° |
| 2026-05-07 18:44 | 35.01852 | -5.95997 | 21925 ft | 424 kts | 214° |
| 2026-05-07 18:44 | 34.99321 | -5.97854 | 21926 ft | 424 kts | 214° |
| 2026-05-07 18:44 | 34.96785 | -5.99704 | 21925 ft | 424 kts | 213° |
| 2026-05-07 18:45 | 34.94249 | -6.01540 | 21922 ft | 424 kts | 213° |
| 2026-05-07 18:45 | 34.91708 | -6.03367 | 21919 ft | 423 kts | 213° |
| 2026-05-07 18:45 | 34.89178 | -6.05179 | 21924 ft | 423 kts | 213° |
| 2026-05-07 18:45 | 34.86640 | -6.06990 | 21924 ft | 422 kts | 213° |
| 2026-05-07 18:46 | 34.84104 | -6.08796 | 21919 ft | 422 kts | 213° |
| 2026-05-07 18:46 | 34.81605 | -6.10574 | 21916 ft | 421 kts | 213° |
| 2026-05-07 18:46 | 34.79071 | -6.12377 | 21919 ft | 421 kts | 213° |
| 2026-05-07 18:46 | 34.76542 | -6.14174 | 21918 ft | 421 kts | 213° |
| 2026-05-07 18:47 | 34.74009 | -6.15974 | 21924 ft | 421 kts | 213° |
| 2026-05-07 18:47 | 34.71478 | -6.17770 | 21920 ft | 421 kts | 213° |
| 2026-05-07 18:47 | 34.68954 | -6.19561 | 21918 ft | 421 kts | 213° |
| 2026-05-07 18:47 | 34.66414 | -6.21362 | 21919 ft | 421 kts | 213° |
| 2026-05-07 18:48 | 34.63883 | -6.23154 | 21917 ft | 421 kts | 213° |
| 2026-05-07 18:48 | 34.61352 | -6.24947 | 21919 ft | 421 kts | 213° |
| 2026-05-07 18:48 | 34.58819 | -6.26739 | 21921 ft | 421 kts | 213° |
| 2026-05-07 18:48 | 34.56290 | -6.28528 | 21919 ft | 421 kts | 213° |
| 2026-05-07 18:49 | 34.53753 | -6.30321 | 21917 ft | 421 kts | 213° |
| 2026-05-07 18:49 | 34.51259 | -6.32081 | 21917 ft | 421 kts | 213° |
| 2026-05-07 18:49 | 34.48634 | -6.33671 | 21904 ft | 425 kts | 203° |
| 2026-05-07 18:49 | 34.45773 | -6.34678 | 21919 ft | 427 kts | 199° |
| 2026-05-07 18:50 | 34.42907 | -6.35637 | 21916 ft | 427 kts | 199° |
| 2026-05-07 18:50 | 34.40048 | -6.36605 | 21918 ft | 427 kts | 200° |
| 2026-05-07 18:50 | 34.37189 | -6.37586 | 21921 ft | 427 kts | 200° |
| 2026-05-07 18:50 | 34.34329 | -6.38579 | 21918 ft | 426 kts | 200° |
| 2026-05-07 18:51 | 34.31485 | -6.39573 | 21920 ft | 426 kts | 200° |
| 2026-05-07 18:51 | 34.28634 | -6.40572 | 21924 ft | 427 kts | 200° |
| 2026-05-07 18:51 | 34.25816 | -6.41560 | 21924 ft | 427 kts | 200° |
| 2026-05-07 18:51 | 34.22968 | -6.42559 | 21921 ft | 427 kts | 200° |
| 2026-05-07 18:52 | 34.20116 | -6.43558 | 21928 ft | 427 kts | 200° |
| 2026-05-07 18:52 | 34.17259 | -6.44557 | 21928 ft | 427 kts | 200° |
| 2026-05-07 18:52 | 34.14407 | -6.45554 | 21920 ft | 427 kts | 200° |
| 2026-05-07 18:52 | 34.11550 | -6.46552 | 21926 ft | 427 kts | 200° |
| 2026-05-07 18:53 | 34.08694 | -6.47549 | 21935 ft | 427 kts | 200° |
| 2026-05-07 18:53 | 34.05846 | -6.48542 | 21929 ft | 426 kts | 200° |
| 2026-05-07 18:53 | 34.02991 | -6.49538 | 21933 ft | 426 kts | 200° |
| 2026-05-07 18:53 | 34.00169 | -6.50520 | 21930 ft | 427 kts | 200° |
| 2026-05-07 18:54 | 33.97409 | -6.51762 | 21923 ft | 421 kts | 211° |
| 2026-05-07 18:54 | 33.95016 | -6.53754 | 21727 ft | 417 kts | 224° |
| 2026-05-07 18:54 | 33.92950 | -6.56181 | 21230 ft | 414 kts | 226° |
| 2026-05-07 18:54 | 33.90925 | -6.58620 | 20596 ft | 409 kts | 226° |
| 2026-05-07 18:55 | 33.88918 | -6.61032 | 19999 ft | 407 kts | 226° |
| 2026-05-07 18:55 | 33.86908 | -6.63427 | 19518 ft | 404 kts | 226° |
| 2026-05-07 18:55 | 33.84913 | -6.65784 | 19186 ft | 399 kts | 226° |
| 2026-05-07 18:55 | 33.82922 | -6.68113 | 18847 ft | 402 kts | 224° |
| 2026-05-07 18:56 | 33.80764 | -6.70218 | 18507 ft | 406 kts | 218° |
| 2026-05-07 18:56 | 33.78487 | -6.72204 | 18159 ft | 403 kts | 217° |
| 2026-05-07 18:56 | 33.76196 | -6.74176 | 17760 ft | 401 kts | 217° |
| 2026-05-07 18:56 | 33.73932 | -6.76125 | 17397 ft | 398 kts | 217° |
| 2026-05-07 18:57 | 33.71722 | -6.78038 | 17115 ft | 394 kts | 217° |
| 2026-05-07 18:57 | 33.69502 | -6.79970 | 16830 ft | 392 kts | 217° |
| 2026-05-07 18:57 | 33.67310 | -6.81884 | 16633 ft | 389 kts | 217° |
| 2026-05-07 18:57 | 33.65129 | -6.83792 | 16445 ft | 387 kts | 217° |
| 2026-05-07 18:58 | 33.62943 | -6.85706 | 16262 ft | 387 kts | 217° |
| 2026-05-07 18:58 | 33.60764 | -6.87614 | 16061 ft | 388 kts | 217° |
| 2026-05-07 18:58 | 33.58587 | -6.89520 | 15881 ft | 388 kts | 217° |